sensor_id;sensor_type;location;lat;lon;timestamp;P1;durP1;ratioP1;P2;durP2;ratioP2
23506;SDS011;11930;53.076;18.250;2023-12-04T00:01:49;16.00;;;8.07;;
23506;SDS011;11930;53.076;18.250;2023-12-04T00:04:16;17.87;;;8.20;;
23506;SDS011;11930;53.076;18.250;2023-12-04T00:06:42;19.00;;;8.47;;
23506;SDS011;11930;53.076;18.250;2023-12-04T00:09:08;16.90;;;8.40;;
23506;SDS011;11930;53.076;18.250;2023-12-04T00:11:34;18.50;;;9.03;;
23506;SDS011;11930;53.076;18.250;2023-12-04T00:14:01;16.93;;;8.43;;
23506;SDS011;11930;53.076;18.250;2023-12-04T00:16:27;18.63;;;9.00;;
23506;SDS011;11930;53.076;18.250;2023-12-04T00:18:53;19.10;;;8.53;;
23506;SDS011;11930;53.076;18.250;2023-12-04T00:21:19;15.57;;;8.07;;
23506;SDS011;11930;53.076;18.250;2023-12-04T00:23:45;17.30;;;8.90;;
23506;SDS011;11930;53.076;18.250;2023-12-04T00:26:11;19.70;;;8.93;;
23506;SDS011;11930;53.076;18.250;2023-12-04T00:28:38;21.47;;;9.47;;
23506;SDS011;11930;53.076;18.250;2023-12-04T00:31:05;18.30;;;8.83;;
23506;SDS011;11930;53.076;18.250;2023-12-04T00:33:33;19.30;;;8.57;;
23506;SDS011;11930;53.076;18.250;2023-12-04T00:35:59;18.77;;;9.20;;
23506;SDS011;11930;53.076;18.250;2023-12-04T00:38:25;18.93;;;9.10;;
23506;SDS011;11930;53.076;18.250;2023-12-04T00:40:51;20.20;;;9.40;;
23506;SDS011;11930;53.076;18.250;2023-12-04T00:43:17;18.70;;;9.33;;
23506;SDS011;11930;53.076;18.250;2023-12-04T00:45:43;18.47;;;9.70;;
23506;SDS011;11930;53.076;18.250;2023-12-04T00:48:09;18.63;;;9.30;;
23506;SDS011;11930;53.076;18.250;2023-12-04T00:50:35;18.07;;;9.20;;
23506;SDS011;11930;53.076;18.250;2023-12-04T00:53:01;18.33;;;9.60;;
23506;SDS011;11930;53.076;18.250;2023-12-04T00:55:27;19.70;;;10.07;;
23506;SDS011;11930;53.076;18.250;2023-12-04T00:57:54;17.77;;;8.90;;
23506;SDS011;11930;53.076;18.250;2023-12-04T01:00:20;18.43;;;8.67;;
23506;SDS011;11930;53.076;18.250;2023-12-04T01:02:46;21.07;;;9.20;;
23506;SDS011;11930;53.076;18.250;2023-12-04T01:05:12;21.83;;;9.43;;
23506;SDS011;11930;53.076;18.250;2023-12-04T01:07:38;18.33;;;8.53;;
23506;SDS011;11930;53.076;18.250;2023-12-04T01:10:04;16.57;;;8.23;;
23506;SDS011;11930;53.076;18.250;2023-12-04T01:12:31;17.47;;;8.33;;
23506;SDS011;11930;53.076;18.250;2023-12-04T01:14:57;18.23;;;8.17;;
23506;SDS011;11930;53.076;18.250;2023-12-04T01:17:23;19.67;;;8.90;;
23506;SDS011;11930;53.076;18.250;2023-12-04T01:19:49;18.80;;;9.33;;
23506;SDS011;11930;53.076;18.250;2023-12-04T01:22:15;18.57;;;8.60;;
23506;SDS011;11930;53.076;18.250;2023-12-04T01:24:41;15.37;;;8.73;;
23506;SDS011;11930;53.076;18.250;2023-12-04T01:27:07;18.97;;;9.50;;
23506;SDS011;11930;53.076;18.250;2023-12-04T01:29:33;17.83;;;8.60;;
23506;SDS011;11930;53.076;18.250;2023-12-04T01:31:59;18.27;;;8.60;;
23506;SDS011;11930;53.076;18.250;2023-12-04T01:34:25;18.07;;;8.83;;
23506;SDS011;11930;53.076;18.250;2023-12-04T01:36:52;17.73;;;9.00;;
23506;SDS011;11930;53.076;18.250;2023-12-04T01:39:17;18.93;;;9.07;;
23506;SDS011;11930;53.076;18.250;2023-12-04T01:41:44;20.83;;;9.27;;
23506;SDS011;11930;53.076;18.250;2023-12-04T01:44:10;18.93;;;9.27;;
23506;SDS011;11930;53.076;18.250;2023-12-04T01:46:36;19.10;;;8.73;;
23506;SDS011;11930;53.076;18.250;2023-12-04T01:49:03;21.00;;;9.23;;
23506;SDS011;11930;53.076;18.250;2023-12-04T01:51:29;21.07;;;9.13;;
23506;SDS011;11930;53.076;18.250;2023-12-04T01:53:56;19.37;;;8.57;;
23506;SDS011;11930;53.076;18.250;2023-12-04T01:56:26;19.03;;;8.40;;
23506;SDS011;11930;53.076;18.250;2023-12-04T01:58:52;15.93;;;7.97;;
23506;SDS011;11930;53.076;18.250;2023-12-04T02:01:18;16.17;;;8.33;;
23506;SDS011;11930;53.076;18.250;2023-12-04T02:03:45;19.20;;;9.03;;
23506;SDS011;11930;53.076;18.250;2023-12-04T02:06:12;19.33;;;8.97;;
23506;SDS011;11930;53.076;18.250;2023-12-04T02:08:40;19.80;;;8.23;;
23506;SDS011;11930;53.076;18.250;2023-12-04T02:11:06;18.80;;;9.40;;
23506;SDS011;11930;53.076;18.250;2023-12-04T02:13:32;17.47;;;9.13;;
23506;SDS011;11930;53.076;18.250;2023-12-04T02:16:00;19.23;;;9.13;;
23506;SDS011;11930;53.076;18.250;2023-12-04T02:18:34;17.83;;;9.00;;
23506;SDS011;11930;53.076;18.250;2023-12-04T02:21:01;19.07;;;8.53;;
23506;SDS011;11930;53.076;18.250;2023-12-04T02:23:27;18.63;;;8.67;;
23506;SDS011;11930;53.076;18.250;2023-12-04T02:25:59;17.63;;;8.93;;
23506;SDS011;11930;53.076;18.250;2023-12-04T02:28:31;21.07;;;9.33;;
23506;SDS011;11930;53.076;18.250;2023-12-04T02:30:59;19.17;;;9.27;;
23506;SDS011;11930;53.076;18.250;2023-12-04T02:33:26;20.33;;;9.67;;
23506;SDS011;11930;53.076;18.250;2023-12-04T02:35:54;19.73;;;9.13;;
23506;SDS011;11930;53.076;18.250;2023-12-04T02:38:22;20.63;;;9.20;;
23506;SDS011;11930;53.076;18.250;2023-12-04T02:40:49;20.17;;;9.53;;
23506;SDS011;11930;53.076;18.250;2023-12-04T02:43:15;22.43;;;10.10;;
23506;SDS011;11930;53.076;18.250;2023-12-04T02:45:41;20.50;;;8.93;;
23506;SDS011;11930;53.076;18.250;2023-12-04T02:48:07;22.13;;;9.27;;
23506;SDS011;11930;53.076;18.250;2023-12-04T02:50:35;21.97;;;9.63;;
23506;SDS011;11930;53.076;18.250;2023-12-04T02:53:01;17.93;;;8.43;;
23506;SDS011;11930;53.076;18.250;2023-12-04T02:55:28;18.73;;;9.70;;
23506;SDS011;11930;53.076;18.250;2023-12-04T02:57:54;18.87;;;9.87;;
23506;SDS011;11930;53.076;18.250;2023-12-04T03:00:20;20.23;;;9.63;;
23506;SDS011;11930;53.076;18.250;2023-12-04T03:02:46;19.57;;;8.80;;
23506;SDS011;11930;53.076;18.250;2023-12-04T03:05:12;19.13;;;9.37;;
23506;SDS011;11930;53.076;18.250;2023-12-04T03:07:38;18.83;;;10.10;;
23506;SDS011;11930;53.076;18.250;2023-12-04T03:10:05;22.90;;;9.93;;
23506;SDS011;11930;53.076;18.250;2023-12-04T03:12:31;20.40;;;10.10;;
23506;SDS011;11930;53.076;18.250;2023-12-04T03:14:57;19.10;;;9.33;;
23506;SDS011;11930;53.076;18.250;2023-12-04T03:17:24;18.13;;;9.17;;
23506;SDS011;11930;53.076;18.250;2023-12-04T03:19:50;19.20;;;9.20;;
23506;SDS011;11930;53.076;18.250;2023-12-04T03:22:17;19.13;;;9.20;;
23506;SDS011;11930;53.076;18.250;2023-12-04T03:24:43;18.87;;;8.90;;
23506;SDS011;11930;53.076;18.250;2023-12-04T03:27:09;19.10;;;9.30;;
23506;SDS011;11930;53.076;18.250;2023-12-04T03:29:35;18.27;;;8.70;;
23506;SDS011;11930;53.076;18.250;2023-12-04T03:32:01;20.40;;;9.20;;
23506;SDS011;11930;53.076;18.250;2023-12-04T03:34:27;20.07;;;9.67;;
23506;SDS011;11930;53.076;18.250;2023-12-04T03:36:53;20.67;;;9.57;;
23506;SDS011;11930;53.076;18.250;2023-12-04T03:39:20;21.57;;;10.07;;
23506;SDS011;11930;53.076;18.250;2023-12-04T03:41:46;21.63;;;9.77;;
23506;SDS011;11930;53.076;18.250;2023-12-04T03:44:13;20.50;;;10.13;;
23506;SDS011;11930;53.076;18.250;2023-12-04T03:46:39;18.50;;;9.60;;
23506;SDS011;11930;53.076;18.250;2023-12-04T03:49:05;20.63;;;10.10;;
23506;SDS011;11930;53.076;18.250;2023-12-04T03:51:31;21.90;;;10.23;;
23506;SDS011;11930;53.076;18.250;2023-12-04T03:53:57;20.97;;;10.03;;
23506;SDS011;11930;53.076;18.250;2023-12-04T03:56:23;21.53;;;9.67;;
23506;SDS011;11930;53.076;18.250;2023-12-04T03:58:49;20.20;;;9.03;;
23506;SDS011;11930;53.076;18.250;2023-12-04T04:01:15;22.00;;;9.53;;
23506;SDS011;11930;53.076;18.250;2023-12-04T04:03:41;22.33;;;9.33;;
23506;SDS011;11930;53.076;18.250;2023-12-04T04:06:08;21.10;;;9.70;;
23506;SDS011;11930;53.076;18.250;2023-12-04T04:08:34;20.77;;;9.37;;
23506;SDS011;11930;53.076;18.250;2023-12-04T04:11:00;19.13;;;9.20;;
23506;SDS011;11930;53.076;18.250;2023-12-04T04:13:27;21.00;;;10.30;;
23506;SDS011;11930;53.076;18.250;2023-12-04T04:15:53;20.37;;;9.43;;
23506;SDS011;11930;53.076;18.250;2023-12-04T04:18:19;20.07;;;9.43;;
23506;SDS011;11930;53.076;18.250;2023-12-04T04:20:45;21.73;;;10.50;;
23506;SDS011;11930;53.076;18.250;2023-12-04T04:23:11;22.20;;;10.57;;
23506;SDS011;11930;53.076;18.250;2023-12-04T04:25:37;21.33;;;9.73;;
23506;SDS011;11930;53.076;18.250;2023-12-04T04:28:03;20.47;;;9.90;;
23506;SDS011;11930;53.076;18.250;2023-12-04T04:30:29;22.00;;;9.50;;
23506;SDS011;11930;53.076;18.250;2023-12-04T04:32:55;20.83;;;9.57;;
23506;SDS011;11930;53.076;18.250;2023-12-04T04:35:21;20.43;;;9.93;;
23506;SDS011;11930;53.076;18.250;2023-12-04T04:37:48;22.67;;;10.50;;
23506;SDS011;11930;53.076;18.250;2023-12-04T04:40:13;21.63;;;9.53;;
23506;SDS011;11930;53.076;18.250;2023-12-04T04:42:40;22.77;;;10.07;;
23506;SDS011;11930;53.076;18.250;2023-12-04T04:45:06;20.10;;;9.77;;
23506;SDS011;11930;53.076;18.250;2023-12-04T04:47:32;22.80;;;9.53;;
23506;SDS011;11930;53.076;18.250;2023-12-04T04:49:58;21.50;;;9.97;;
23506;SDS011;11930;53.076;18.250;2023-12-04T04:52:24;21.00;;;10.17;;
23506;SDS011;11930;53.076;18.250;2023-12-04T04:54:50;20.20;;;9.40;;
23506;SDS011;11930;53.076;18.250;2023-12-04T04:57:16;20.13;;;10.03;;
23506;SDS011;11930;53.076;18.250;2023-12-04T04:59:42;22.57;;;9.90;;
23506;SDS011;11930;53.076;18.250;2023-12-04T05:02:09;24.03;;;10.63;;
23506;SDS011;11930;53.076;18.250;2023-12-04T05:04:34;21.07;;;9.97;;
23506;SDS011;11930;53.076;18.250;2023-12-04T05:07:01;23.20;;;10.10;;
23506;SDS011;11930;53.076;18.250;2023-12-04T05:09:27;21.07;;;10.10;;
23506;SDS011;11930;53.076;18.250;2023-12-04T05:11:53;20.83;;;10.33;;
23506;SDS011;11930;53.076;18.250;2023-12-04T05:14:19;20.23;;;10.80;;
23506;SDS011;11930;53.076;18.250;2023-12-04T05:16:45;21.70;;;10.00;;
23506;SDS011;11930;53.076;18.250;2023-12-04T05:19:11;20.13;;;10.37;;
23506;SDS011;11930;53.076;18.250;2023-12-04T05:21:37;21.33;;;9.57;;
23506;SDS011;11930;53.076;18.250;2023-12-04T05:24:03;20.57;;;10.27;;
23506;SDS011;11930;53.076;18.250;2023-12-04T05:26:30;23.43;;;9.83;;
23506;SDS011;11930;53.076;18.250;2023-12-04T05:28:56;23.97;;;10.03;;
23506;SDS011;11930;53.076;18.250;2023-12-04T05:31:22;23.77;;;10.77;;
23506;SDS011;11930;53.076;18.250;2023-12-04T05:33:48;20.77;;;10.20;;
23506;SDS011;11930;53.076;18.250;2023-12-04T05:36:14;22.17;;;10.07;;
23506;SDS011;11930;53.076;18.250;2023-12-04T05:38:40;20.63;;;9.67;;
23506;SDS011;11930;53.076;18.250;2023-12-04T05:41:06;22.53;;;10.37;;
23506;SDS011;11930;53.076;18.250;2023-12-04T05:43:32;20.23;;;10.17;;
23506;SDS011;11930;53.076;18.250;2023-12-04T05:45:59;23.47;;;10.20;;
23506;SDS011;11930;53.076;18.250;2023-12-04T05:48:25;20.97;;;9.43;;
23506;SDS011;11930;53.076;18.250;2023-12-04T05:50:51;22.00;;;10.20;;
23506;SDS011;11930;53.076;18.250;2023-12-04T05:53:17;19.90;;;9.27;;
23506;SDS011;11930;53.076;18.250;2023-12-04T05:55:43;20.60;;;8.70;;
23506;SDS011;11930;53.076;18.250;2023-12-04T05:58:11;18.93;;;9.10;;
23506;SDS011;11930;53.076;18.250;2023-12-04T06:00:37;18.70;;;9.27;;
23506;SDS011;11930;53.076;18.250;2023-12-04T06:03:03;19.20;;;8.80;;
23506;SDS011;11930;53.076;18.250;2023-12-04T06:05:30;19.77;;;9.50;;
23506;SDS011;11930;53.076;18.250;2023-12-04T06:07:56;23.60;;;10.13;;
23506;SDS011;11930;53.076;18.250;2023-12-04T06:10:23;20.23;;;9.73;;
23506;SDS011;11930;53.076;18.250;2023-12-04T06:12:49;20.23;;;9.67;;
23506;SDS011;11930;53.076;18.250;2023-12-04T06:15:15;20.13;;;9.40;;
23506;SDS011;11930;53.076;18.250;2023-12-04T06:17:41;21.63;;;10.10;;
23506;SDS011;11930;53.076;18.250;2023-12-04T06:20:08;18.00;;;9.47;;
23506;SDS011;11930;53.076;18.250;2023-12-04T06:22:36;20.47;;;9.67;;
23506;SDS011;11930;53.076;18.250;2023-12-04T06:25:03;21.30;;;10.23;;
23506;SDS011;11930;53.076;18.250;2023-12-04T06:27:30;20.10;;;10.03;;
23506;SDS011;11930;53.076;18.250;2023-12-04T06:29:57;20.00;;;9.67;;
23506;SDS011;11930;53.076;18.250;2023-12-04T06:32:23;73.20;;;30.50;;
23506;SDS011;11930;53.076;18.250;2023-12-04T06:34:50;83.27;;;37.57;;
23506;SDS011;11930;53.076;18.250;2023-12-04T06:37:16;161.13;;;81.60;;
23506;SDS011;11930;53.076;18.250;2023-12-04T06:39:43;95.70;;;50.60;;
23506;SDS011;11930;53.076;18.250;2023-12-04T06:42:11;30.93;;;17.50;;
23506;SDS011;11930;53.076;18.250;2023-12-04T06:44:38;26.97;;;13.43;;
23506;SDS011;11930;53.076;18.250;2023-12-04T06:47:04;22.60;;;11.30;;
23506;SDS011;11930;53.076;18.250;2023-12-04T06:49:33;23.37;;;11.73;;
23506;SDS011;11930;53.076;18.250;2023-12-04T06:51:59;25.90;;;11.87;;
23506;SDS011;11930;53.076;18.250;2023-12-04T06:54:26;24.17;;;11.23;;
23506;SDS011;11930;53.076;18.250;2023-12-04T06:56:52;26.97;;;11.33;;
23506;SDS011;11930;53.076;18.250;2023-12-04T06:59:18;83.53;;;32.80;;
23506;SDS011;11930;53.076;18.250;2023-12-04T07:01:45;105.47;;;36.60;;
23506;SDS011;11930;53.076;18.250;2023-12-04T07:04:11;72.33;;;23.80;;
23506;SDS011;11930;53.076;18.250;2023-12-04T07:06:37;57.13;;;19.90;;
23506;SDS011;11930;53.076;18.250;2023-12-04T07:09:04;97.83;;;30.03;;
23506;SDS011;11930;53.076;18.250;2023-12-04T07:11:32;393.60;;;110.03;;
23506;SDS011;11930;53.076;18.250;2023-12-04T07:13:59;166.37;;;47.07;;
23506;SDS011;11930;53.076;18.250;2023-12-04T07:16:25;52.17;;;20.23;;
23506;SDS011;11930;53.076;18.250;2023-12-04T07:18:51;60.43;;;18.50;;
23506;SDS011;11930;53.076;18.250;2023-12-04T07:21:17;70.87;;;20.60;;
23506;SDS011;11930;53.076;18.250;2023-12-04T07:23:43;50.40;;;18.27;;
23506;SDS011;11930;53.076;18.250;2023-12-04T07:26:09;94.37;;;25.50;;
23506;SDS011;11930;53.076;18.250;2023-12-04T07:28:35;168.33;;;51.43;;
23506;SDS011;11930;53.076;18.250;2023-12-04T07:31:01;158.60;;;37.33;;
23506;SDS011;11930;53.076;18.250;2023-12-04T07:33:27;60.73;;;20.00;;
23506;SDS011;11930;53.076;18.250;2023-12-04T07:35:54;37.20;;;14.27;;
23506;SDS011;11930;53.076;18.250;2023-12-04T07:38:20;61.13;;;19.03;;
23506;SDS011;11930;53.076;18.250;2023-12-04T07:40:46;31.67;;;13.13;;
23506;SDS011;11930;53.076;18.250;2023-12-04T07:43:13;37.63;;;15.20;;
23506;SDS011;11930;53.076;18.250;2023-12-04T07:45:41;30.07;;;12.87;;
23506;SDS011;11930;53.076;18.250;2023-12-04T07:48:08;25.37;;;11.63;;
23506;SDS011;11930;53.076;18.250;2023-12-04T07:50:34;41.90;;;16.27;;
23506;SDS011;11930;53.076;18.250;2023-12-04T07:53:01;74.20;;;23.30;;
23506;SDS011;11930;53.076;18.250;2023-12-04T07:55:27;43.00;;;14.77;;
23506;SDS011;11930;53.076;18.250;2023-12-04T07:57:53;28.70;;;12.50;;
23506;SDS011;11930;53.076;18.250;2023-12-04T08:00:19;26.63;;;11.60;;
23506;SDS011;11930;53.076;18.250;2023-12-04T08:02:48;23.37;;;10.87;;
23506;SDS011;11930;53.076;18.250;2023-12-04T08:05:14;32.93;;;13.47;;
23506;SDS011;11930;53.076;18.250;2023-12-04T08:07:40;25.27;;;11.47;;
23506;SDS011;11930;53.076;18.250;2023-12-04T08:10:06;29.57;;;11.97;;
23506;SDS011;11930;53.076;18.250;2023-12-04T08:12:33;33.00;;;13.30;;
23506;SDS011;11930;53.076;18.250;2023-12-04T08:14:59;28.60;;;12.20;;
23506;SDS011;11930;53.076;18.250;2023-12-04T08:17:27;35.20;;;15.10;;
23506;SDS011;11930;53.076;18.250;2023-12-04T08:19:53;41.23;;;17.60;;
23506;SDS011;11930;53.076;18.250;2023-12-04T08:22:20;35.13;;;14.73;;
23506;SDS011;11930;53.076;18.250;2023-12-04T08:24:46;57.17;;;19.83;;
23506;SDS011;11930;53.076;18.250;2023-12-04T08:27:12;33.80;;;13.37;;
23506;SDS011;11930;53.076;18.250;2023-12-04T08:29:40;33.77;;;14.73;;
23506;SDS011;11930;53.076;18.250;2023-12-04T08:32:07;28.50;;;12.73;;
23506;SDS011;11930;53.076;18.250;2023-12-04T08:34:33;29.83;;;12.90;;
23506;SDS011;11930;53.076;18.250;2023-12-04T08:36:59;26.53;;;12.33;;
23506;SDS011;11930;53.076;18.250;2023-12-04T08:39:25;24.90;;;11.97;;
23506;SDS011;11930;53.076;18.250;2023-12-04T08:41:52;24.93;;;11.83;;
23506;SDS011;11930;53.076;18.250;2023-12-04T08:44:18;24.43;;;11.67;;
23506;SDS011;11930;53.076;18.250;2023-12-04T08:46:44;26.07;;;12.60;;
23506;SDS011;11930;53.076;18.250;2023-12-04T08:49:10;26.30;;;11.83;;
23506;SDS011;11930;53.076;18.250;2023-12-04T08:51:36;25.33;;;11.60;;
23506;SDS011;11930;53.076;18.250;2023-12-04T08:54:02;33.73;;;13.30;;
23506;SDS011;11930;53.076;18.250;2023-12-04T08:56:29;24.93;;;12.30;;
23506;SDS011;11930;53.076;18.250;2023-12-04T08:58:55;29.57;;;12.87;;
23506;SDS011;11930;53.076;18.250;2023-12-04T09:01:23;27.83;;;13.23;;
23506;SDS011;11930;53.076;18.250;2023-12-04T09:03:49;31.83;;;14.93;;
23506;SDS011;11930;53.076;18.250;2023-12-04T09:06:15;52.07;;;19.90;;
23506;SDS011;11930;53.076;18.250;2023-12-04T09:08:41;28.40;;;14.03;;
23506;SDS011;11930;53.076;18.250;2023-12-04T09:11:07;36.37;;;14.87;;
23506;SDS011;11930;53.076;18.250;2023-12-04T09:13:33;32.93;;;13.80;;
23506;SDS011;11930;53.076;18.250;2023-12-04T09:16:00;29.80;;;14.40;;
23506;SDS011;11930;53.076;18.250;2023-12-04T09:18:26;30.87;;;14.70;;
23506;SDS011;11930;53.076;18.250;2023-12-04T09:20:52;35.23;;;15.63;;
23506;SDS011;11930;53.076;18.250;2023-12-04T09:23:18;30.60;;;13.80;;
23506;SDS011;11930;53.076;18.250;2023-12-04T09:25:44;27.40;;;13.37;;
23506;SDS011;11930;53.076;18.250;2023-12-04T09:28:10;31.90;;;14.90;;
23506;SDS011;11930;53.076;18.250;2023-12-04T09:30:36;49.03;;;21.67;;
23506;SDS011;11930;53.076;18.250;2023-12-04T09:33:03;39.53;;;16.93;;
23506;SDS011;11930;53.076;18.250;2023-12-04T09:35:29;35.67;;;15.37;;
23506;SDS011;11930;53.076;18.250;2023-12-04T09:37:55;33.53;;;14.50;;
23506;SDS011;11930;53.076;18.250;2023-12-04T09:40:22;30.37;;;14.27;;
23506;SDS011;11930;53.076;18.250;2023-12-04T09:42:48;27.87;;;13.57;;
23506;SDS011;11930;53.076;18.250;2023-12-04T09:45:15;29.30;;;13.27;;
23506;SDS011;11930;53.076;18.250;2023-12-04T09:47:42;27.57;;;13.40;;
23506;SDS011;11930;53.076;18.250;2023-12-04T09:50:10;29.70;;;13.57;;
23506;SDS011;11930;53.076;18.250;2023-12-04T09:52:36;28.40;;;13.00;;
23506;SDS011;11930;53.076;18.250;2023-12-04T09:55:02;28.67;;;13.77;;
23506;SDS011;11930;53.076;18.250;2023-12-04T09:57:30;37.83;;;14.80;;
23506;SDS011;11930;53.076;18.250;2023-12-04T09:59:57;30.93;;;14.23;;
23506;SDS011;11930;53.076;18.250;2023-12-04T10:02:26;27.03;;;13.80;;
23506;SDS011;11930;53.076;18.250;2023-12-04T10:04:52;32.93;;;14.27;;
23506;SDS011;11930;53.076;18.250;2023-12-04T10:07:18;33.00;;;14.13;;
23506;SDS011;11930;53.076;18.250;2023-12-04T10:09:45;33.87;;;15.27;;
23506;SDS011;11930;53.076;18.250;2023-12-04T10:12:10;32.77;;;14.50;;
23506;SDS011;11930;53.076;18.250;2023-12-04T10:14:37;39.10;;;16.73;;
23506;SDS011;11930;53.076;18.250;2023-12-04T10:17:15;35.57;;;15.13;;
23506;SDS011;11930;53.076;18.250;2023-12-04T10:19:43;34.03;;;16.33;;
23506;SDS011;11930;53.076;18.250;2023-12-04T10:22:09;34.60;;;15.20;;
23506;SDS011;11930;53.076;18.250;2023-12-04T10:24:38;35.87;;;16.97;;
23506;SDS011;11930;53.076;18.250;2023-12-04T10:27:05;29.37;;;13.80;;
23506;SDS011;11930;53.076;18.250;2023-12-04T10:32:07;88.53;;;39.67;;
23506;SDS011;11930;53.076;18.250;2023-12-04T10:34:34;57.03;;;26.20;;
23506;SDS011;11930;53.076;18.250;2023-12-04T10:37:02;36.90;;;18.10;;
23506;SDS011;11930;53.076;18.250;2023-12-04T10:39:29;45.63;;;19.90;;
23506;SDS011;11930;53.076;18.250;2023-12-04T10:41:58;68.30;;;33.47;;
23506;SDS011;11930;53.076;18.250;2023-12-04T10:44:26;45.33;;;21.03;;
23506;SDS011;11930;53.076;18.250;2023-12-04T10:46:56;35.90;;;16.63;;
23506;SDS011;11930;53.076;18.250;2023-12-04T10:49:27;40.80;;;19.87;;
23506;SDS011;11930;53.076;18.250;2023-12-04T10:51:57;39.33;;;20.20;;
23506;SDS011;11930;53.076;18.250;2023-12-04T10:54:27;67.67;;;31.67;;
23506;SDS011;11930;53.076;18.250;2023-12-04T10:56:53;86.07;;;39.00;;
23506;SDS011;11930;53.076;18.250;2023-12-04T10:59:26;51.47;;;23.40;;
23506;SDS011;11930;53.076;18.250;2023-12-04T11:01:57;50.50;;;24.13;;
23506;SDS011;11930;53.076;18.250;2023-12-04T11:04:26;75.37;;;35.63;;
23506;SDS011;11930;53.076;18.250;2023-12-04T11:06:53;41.33;;;19.70;;
23506;SDS011;11930;53.076;18.250;2023-12-04T11:09:21;38.60;;;16.80;;
23506;SDS011;11930;53.076;18.250;2023-12-04T11:11:53;35.90;;;16.63;;
23506;SDS011;11930;53.076;18.250;2023-12-04T11:14:25;39.80;;;17.87;;
23506;SDS011;11930;53.076;18.250;2023-12-04T11:17:03;40.87;;;18.07;;
23506;SDS011;11930;53.076;18.250;2023-12-04T11:19:39;44.13;;;19.63;;
23506;SDS011;11930;53.076;18.250;2023-12-04T11:22:14;43.20;;;19.83;;
23506;SDS011;11930;53.076;18.250;2023-12-04T11:24:46;49.93;;;22.40;;
23506;SDS011;11930;53.076;18.250;2023-12-04T11:27:18;52.27;;;24.90;;
23506;SDS011;11930;53.076;18.250;2023-12-04T11:29:46;45.63;;;21.23;;
23506;SDS011;11930;53.076;18.250;2023-12-04T11:32:16;54.07;;;23.27;;
23506;SDS011;11930;53.076;18.250;2023-12-04T11:34:49;62.60;;;29.67;;
23506;SDS011;11930;53.076;18.250;2023-12-04T11:37:17;46.10;;;23.23;;
23506;SDS011;11930;53.076;18.250;2023-12-04T11:39:46;42.00;;;20.13;;
23506;SDS011;11930;53.076;18.250;2023-12-04T11:42:13;44.93;;;20.40;;
23506;SDS011;11930;53.076;18.250;2023-12-04T11:44:44;43.83;;;19.13;;
23506;SDS011;11930;53.076;18.250;2023-12-04T11:47:12;44.93;;;20.73;;
23506;SDS011;11930;53.076;18.250;2023-12-04T11:49:38;46.47;;;20.47;;
23506;SDS011;11930;53.076;18.250;2023-12-04T11:52:05;45.83;;;20.37;;
23506;SDS011;11930;53.076;18.250;2023-12-04T11:57:26;55.00;;;25.80;;
23506;SDS011;11930;53.076;18.250;2023-12-04T12:00:08;41.03;;;19.20;;
23506;SDS011;11930;53.076;18.250;2023-12-04T12:05:22;46.23;;;21.20;;
23506;SDS011;11930;53.076;18.250;2023-12-04T12:07:49;46.60;;;21.60;;
23506;SDS011;11930;53.076;18.250;2023-12-04T12:10:16;42.07;;;18.50;;
23506;SDS011;11930;53.076;18.250;2023-12-04T12:12:42;55.57;;;23.33;;
23506;SDS011;11930;53.076;18.250;2023-12-04T12:15:09;56.53;;;25.97;;
23506;SDS011;11930;53.076;18.250;2023-12-04T12:17:39;42.83;;;19.47;;
23506;SDS011;11930;53.076;18.250;2023-12-04T12:20:07;37.80;;;18.63;;
23506;SDS011;11930;53.076;18.250;2023-12-04T12:22:35;41.90;;;20.33;;
23506;SDS011;11930;53.076;18.250;2023-12-04T12:25:05;51.67;;;20.97;;
23506;SDS011;11930;53.076;18.250;2023-12-04T12:27:32;48.00;;;21.33;;
23506;SDS011;11930;53.076;18.250;2023-12-04T12:29:58;53.37;;;21.33;;
23506;SDS011;11930;53.076;18.250;2023-12-04T12:32:25;51.03;;;22.07;;
23506;SDS011;11930;53.076;18.250;2023-12-04T12:34:52;42.60;;;19.67;;
23506;SDS011;11930;53.076;18.250;2023-12-04T12:37:20;52.20;;;24.67;;
23506;SDS011;11930;53.076;18.250;2023-12-04T12:39:47;63.27;;;32.70;;
23506;SDS011;11930;53.076;18.250;2023-12-04T12:42:23;64.97;;;30.63;;
23506;SDS011;11930;53.076;18.250;2023-12-04T12:44:53;50.80;;;23.27;;
23506;SDS011;11930;53.076;18.250;2023-12-04T12:47:21;50.03;;;22.53;;
23506;SDS011;11930;53.076;18.250;2023-12-04T12:49:48;70.73;;;29.20;;
23506;SDS011;11930;53.076;18.250;2023-12-04T12:52:14;71.87;;;31.23;;
23506;SDS011;11930;53.076;18.250;2023-12-04T12:54:41;80.40;;;34.37;;
23506;SDS011;11930;53.076;18.250;2023-12-04T12:57:09;90.40;;;38.67;;
23506;SDS011;11930;53.076;18.250;2023-12-04T12:59:39;86.00;;;38.73;;
23506;SDS011;11930;53.076;18.250;2023-12-04T13:02:06;101.53;;;43.20;;
23506;SDS011;11930;53.076;18.250;2023-12-04T13:04:41;78.43;;;34.33;;
23506;SDS011;11930;53.076;18.250;2023-12-04T13:07:09;102.03;;;42.53;;
23506;SDS011;11930;53.076;18.250;2023-12-04T13:09:35;77.97;;;33.43;;
23506;SDS011;11930;53.076;18.250;2023-12-04T13:12:02;62.80;;;28.70;;
23506;SDS011;11930;53.076;18.250;2023-12-04T13:14:30;67.13;;;30.40;;
23506;SDS011;11930;53.076;18.250;2023-12-04T13:16:56;78.03;;;32.87;;
23506;SDS011;11930;53.076;18.250;2023-12-04T13:19:22;91.77;;;39.27;;
23506;SDS011;11930;53.076;18.250;2023-12-04T13:21:49;63.17;;;28.40;;
23506;SDS011;11930;53.076;18.250;2023-12-04T13:24:15;52.80;;;24.00;;
23506;SDS011;11930;53.076;18.250;2023-12-04T13:26:43;52.90;;;23.03;;
23506;SDS011;11930;53.076;18.250;2023-12-04T13:29:10;49.03;;;22.80;;
23506;SDS011;11930;53.076;18.250;2023-12-04T13:31:37;52.33;;;23.20;;
23506;SDS011;11930;53.076;18.250;2023-12-04T13:34:03;52.10;;;22.90;;
23506;SDS011;11930;53.076;18.250;2023-12-04T13:36:34;53.63;;;24.07;;
23506;SDS011;11930;53.076;18.250;2023-12-04T13:39:02;45.30;;;22.13;;
23506;SDS011;11930;53.076;18.250;2023-12-04T13:41:30;54.70;;;25.07;;
23506;SDS011;11930;53.076;18.250;2023-12-04T13:44:15;50.10;;;23.37;;
23506;SDS011;11930;53.076;18.250;2023-12-04T13:46:42;213.80;;;82.20;;
23506;SDS011;11930;53.076;18.250;2023-12-04T13:49:07;88.33;;;38.47;;
23506;SDS011;11930;53.076;18.250;2023-12-04T13:51:35;73.13;;;33.20;;
23506;SDS011;11930;53.076;18.250;2023-12-04T13:54:05;68.93;;;33.37;;
23506;SDS011;11930;53.076;18.250;2023-12-04T13:56:48;64.67;;;28.87;;
23506;SDS011;11930;53.076;18.250;2023-12-04T13:59:21;52.97;;;23.83;;
23506;SDS011;11930;53.076;18.250;2023-12-04T14:01:48;54.73;;;23.30;;
23506;SDS011;11930;53.076;18.250;2023-12-04T14:04:16;50.03;;;22.63;;
23506;SDS011;11930;53.076;18.250;2023-12-04T14:06:43;50.37;;;21.80;;
23506;SDS011;11930;53.076;18.250;2023-12-04T14:09:10;46.30;;;20.00;;
23506;SDS011;11930;53.076;18.250;2023-12-04T14:11:43;48.17;;;21.47;;
23506;SDS011;11930;53.076;18.250;2023-12-04T14:14:10;51.90;;;22.40;;
23506;SDS011;11930;53.076;18.250;2023-12-04T14:16:38;45.77;;;19.27;;
23506;SDS011;11930;53.076;18.250;2023-12-04T14:19:05;47.03;;;19.57;;
23506;SDS011;11930;53.076;18.250;2023-12-04T14:21:31;44.43;;;18.70;;